createdAt,value
2018-10-17T00:00:11.766Z,25.83
2018-10-17T00:02:41.726Z,27.17
2018-10-17T00:05:11.099Z,28.47
2018-10-17T00:07:40.626Z,27.53
2018-10-17T00:10:10.826Z,25.80
2018-10-17T00:12:40.909Z,23.10
2018-10-17T00:15:10.546Z,23.23
2018-10-17T00:17:39.777Z,25.70
2018-10-17T00:20:10.326Z,26.73
2018-10-17T00:22:39.622Z,24.27
2018-10-17T00:25:09.027Z,24.60
2018-10-17T00:27:38.346Z,25.90
2018-10-17T00:30:11.226Z,28.40
2018-10-17T00:32:40.546Z,22.77
2018-10-17T00:35:10.523Z,23.73
2018-10-17T00:37:39.886Z,25.00
2018-10-17T00:40:09.386Z,25.23
2018-10-17T00:42:38.706Z,24.77
2018-10-17T00:45:08.726Z,24.30
2018-10-17T00:47:38.026Z,29.50
2018-10-17T00:50:07.446Z,24.87
2018-10-17T00:52:37.167Z,23.70
2018-10-17T00:55:07.252Z,23.83
2018-10-17T00:57:36.527Z,26.60
2018-10-17T01:00:06.269Z,32.50
2018-10-17T01:02:35.529Z,31.60
2018-10-17T01:05:05.052Z,26.13
2018-10-17T01:07:34.367Z,33.10
2018-10-17T01:10:03.747Z,32.30
2018-10-17T01:12:33.427Z,30.73
2018-10-17T01:15:02.826Z,33.70
2018-10-17T01:17:32.189Z,29.00
2018-10-17T01:20:01.727Z,26.47
2018-10-17T01:22:31.407Z,25.53
2018-10-17T01:25:00.756Z,27.23
2018-10-17T01:27:30.227Z,27.00
2018-10-17T01:29:59.552Z,25.43
2018-10-17T01:32:28.827Z,27.67
2018-10-17T01:34:58.147Z,25.30
2018-10-17T01:37:27.287Z,26.20
2018-10-17T01:39:56.606Z,28.40
2018-10-17T01:42:25.793Z,23.80
2018-10-17T01:44:55.028Z,31.20
2018-10-17T01:47:24.147Z,27.87
2018-10-17T01:49:53.447Z,28.60
2018-10-17T01:52:22.707Z,29.40
2018-10-17T01:54:51.952Z,38.77
2018-10-17T01:57:21.266Z,33.20
2018-10-17T01:59:50.506Z,31.50
2018-10-17T02:02:19.748Z,27.40
2018-10-17T02:04:48.930Z,26.50
2018-10-17T02:07:18.147Z,29.53
2018-10-17T02:09:47.352Z,28.07
2018-10-17T02:12:16.986Z,23.90
2018-10-17T02:14:46.342Z,26.67
2018-10-17T02:17:16.009Z,27.07
2018-10-17T02:19:45.226Z,26.27
2018-10-17T02:22:14.496Z,25.27
2018-10-17T02:24:44.091Z,27.53
2018-10-17T02:27:13.366Z,25.30
2018-10-17T02:29:42.684Z,30.13
2018-10-17T02:32:12.306Z,27.20
2018-10-17T02:34:46.946Z,28.27
2018-10-17T02:37:16.356Z,27.83
2018-10-17T02:39:53.076Z,28.97
2018-10-17T02:42:22.301Z,22.37
2018-10-17T02:44:51.579Z,27.03
2018-10-17T02:47:20.862Z,24.20
2018-10-17T02:49:50.107Z,23.67
2018-10-17T02:52:19.379Z,25.53
2018-10-17T02:54:48.859Z,27.83
2018-10-17T02:57:18.139Z,25.63
2018-10-17T02:59:47.364Z,26.23
2018-10-17T03:02:16.599Z,29.27
2018-10-17T03:04:45.795Z,31.07
2018-10-17T03:07:15.329Z,50.90
2018-10-17T03:09:44.471Z,40.03
2018-10-17T03:12:14.136Z,33.30
2018-10-17T03:14:43.384Z,29.60
2018-10-17T03:17:12.706Z,31.83
2018-10-17T03:19:42.060Z,33.83
2018-10-17T03:22:11.660Z,35.57
2018-10-17T03:24:41.339Z,28.53
2018-10-17T03:27:10.559Z,30.27
2018-10-17T03:29:39.899Z,28.20
2018-10-17T03:32:09.240Z,28.47
2018-10-17T03:34:38.539Z,28.40
2018-10-17T03:37:07.838Z,27.90
2018-10-17T03:39:37.019Z,27.03
2018-10-17T03:42:06.480Z,31.23
2018-10-17T03:44:35.839Z,27.77
2018-10-17T03:47:05.279Z,31.17
2018-10-17T03:49:34.543Z,29.07
2018-10-17T03:52:04.091Z,31.60
2018-10-17T03:54:33.540Z,29.50
2018-10-17T03:57:02.939Z,29.93
2018-10-17T03:59:32.387Z,30.70
2018-10-17T04:02:01.620Z,32.73
2018-10-17T04:04:30.959Z,31.37
2018-10-17T04:07:00.216Z,33.10
2018-10-17T04:09:29.560Z,29.43
2018-10-17T04:11:58.743Z,30.27
2018-10-17T04:14:28.099Z,30.23
2018-10-17T04:16:57.477Z,31.33
2018-10-17T04:19:26.853Z,29.93
2018-10-17T04:22:02.679Z,32.13
2018-10-17T04:24:31.999Z,31.33
2018-10-17T04:27:01.208Z,26.13
2018-10-17T04:29:30.457Z,29.43
2018-10-17T04:31:59.625Z,35.13
2018-10-17T04:34:29.279Z,32.53
2018-10-17T04:36:58.725Z,29.73
2018-10-17T04:39:31.300Z,35.53
2018-10-17T04:42:00.570Z,33.83
2018-10-17T04:44:29.820Z,30.33
2018-10-17T04:46:59.190Z,33.37
2018-10-17T04:49:28.457Z,30.50
2018-10-17T04:51:57.757Z,40.10
2018-10-17T04:54:27.064Z,32.67
2018-10-17T04:56:56.297Z,28.43
2018-10-17T04:59:25.550Z,27.57
2018-10-17T05:01:54.797Z,31.70
2018-10-17T05:04:24.469Z,36.97
2018-10-17T05:06:53.773Z,30.87
2018-10-17T05:09:23.097Z,32.77
2018-10-17T05:11:52.297Z,28.27
2018-10-17T05:14:21.598Z,32.37
2018-10-17T05:16:50.859Z,27.70
2018-10-17T05:19:20.179Z,31.07
2018-10-17T05:21:49.457Z,35.40
2018-10-17T05:24:18.737Z,29.80
2018-10-17T05:26:48.037Z,33.77
2018-10-17T05:29:17.519Z,30.17
2018-10-17T05:31:46.797Z,26.37
2018-10-17T05:34:15.997Z,27.23
2018-10-17T05:36:45.297Z,28.10
2018-10-17T05:39:14.457Z,28.60
2018-10-17T05:41:43.697Z,33.77
2018-10-17T05:44:13.050Z,29.80
2018-10-17T05:46:42.360Z,29.50
2018-10-17T05:49:11.794Z,26.20
2018-10-17T05:51:41.077Z,30.80
2018-10-17T05:54:10.340Z,33.93
2018-10-17T05:56:39.597Z,31.33
2018-10-17T05:59:08.915Z,34.00
2018-10-17T06:01:38.955Z,31.90
2018-10-17T06:04:08.118Z,30.00
2018-10-17T06:06:37.465Z,28.20
2018-10-17T06:09:09.468Z,29.50
2018-10-17T06:11:38.857Z,30.47
2018-10-17T06:14:12.597Z,36.57
2018-10-17T06:16:42.121Z,31.40
2018-10-17T06:19:11.629Z,30.07
2018-10-17T06:21:40.898Z,32.50
2018-10-17T06:24:10.137Z,30.80
2018-10-17T06:26:39.578Z,29.10
2018-10-17T06:29:08.947Z,27.57
2018-10-17T06:31:38.117Z,25.23
2018-10-17T06:34:07.702Z,30.07
2018-10-17T06:36:36.918Z,27.53
2018-10-17T06:39:10.337Z,26.13
2018-10-17T06:41:39.737Z,28.43
2018-10-17T06:44:09.253Z,29.63
2018-10-17T06:46:38.557Z,31.23
2018-10-17T06:49:07.999Z,27.07
2018-10-17T06:51:37.278Z,33.00
2018-10-17T06:54:06.970Z,33.40
2018-10-17T06:56:36.118Z,29.93
2018-10-17T06:59:05.727Z,33.47
2018-10-17T07:01:35.847Z,30.53
2018-10-17T07:04:05.438Z,26.83
2018-10-17T07:06:34.758Z,27.00
2018-10-17T07:09:05.638Z,29.13
2018-10-17T07:11:34.798Z,26.67
2018-10-17T07:14:04.437Z,30.43
2018-10-17T07:16:33.658Z,28.97
2018-10-17T07:19:03.404Z,27.23
2018-10-17T07:21:32.621Z,30.73
2018-10-17T07:24:01.853Z,30.70
2018-10-17T07:26:31.144Z,28.00
2018-10-17T07:29:00.424Z,26.93
2018-10-17T07:31:29.678Z,31.80
2018-10-17T07:33:58.962Z,30.37
2018-10-17T07:36:28.258Z,34.23
2018-10-17T07:38:57.493Z,29.87
2018-10-17T07:41:26.778Z,25.60
2018-10-17T07:43:55.938Z,27.90
2018-10-17T07:46:25.173Z,27.93
2018-10-17T07:48:57.218Z,28.80
2018-10-17T07:51:26.483Z,27.17
2018-10-17T07:53:55.900Z,26.60
2018-10-17T07:56:25.207Z,29.10
2018-10-17T07:58:54.385Z,30.47
2018-10-17T08:01:23.763Z,26.03
2018-10-17T08:03:53.017Z,26.37
2018-10-17T08:06:22.808Z,23.80
2018-10-17T08:08:51.943Z,27.40
2018-10-17T08:11:21.328Z,25.37
2018-10-17T08:13:50.678Z,25.77
2018-10-17T08:16:20.283Z,26.97
2018-10-17T08:18:49.513Z,28.30
2018-10-17T08:21:18.840Z,27.53
2018-10-17T08:23:48.121Z,29.53
2018-10-17T08:26:20.383Z,29.47
2018-10-17T08:28:49.642Z,24.93
2018-10-17T08:31:18.922Z,29.07
2018-10-17T08:33:48.183Z,30.00
2018-10-17T08:36:17.588Z,25.23
2018-10-17T08:38:46.762Z,27.30
2018-10-17T08:41:16.016Z,31.47
2018-10-17T08:43:45.283Z,32.73
2018-10-17T08:46:15.141Z,29.60
2018-10-17T08:48:44.744Z,30.90
2018-10-17T08:51:14.303Z,27.00
2018-10-17T08:53:43.603Z,30.67
2018-10-17T08:56:12.992Z,30.73
2018-10-17T08:58:42.203Z,26.67
2018-10-17T09:01:11.485Z,27.33
2018-10-17T09:03:40.822Z,29.97
2018-10-17T09:06:10.136Z,26.47
2018-10-17T09:08:39.429Z,27.13
2018-10-17T09:11:08.842Z,27.40
2018-10-17T09:13:38.236Z,29.03
2018-10-17T09:16:07.641Z,27.50
2018-10-17T09:18:37.303Z,25.07
2018-10-17T09:21:07.215Z,26.37
2018-10-17T09:23:36.125Z,29.70
2018-10-17T09:26:05.562Z,27.17
2018-10-17T09:28:34.903Z,27.30
2018-10-17T09:31:04.524Z,29.27
2018-10-17T09:33:34.202Z,27.20
2018-10-17T09:36:03.949Z,29.90
2018-10-17T09:38:33.163Z,26.03
2018-10-17T09:41:02.721Z,31.33
2018-10-17T09:43:31.841Z,27.37
2018-10-17T09:46:01.295Z,39.67
2018-10-17T09:48:30.529Z,43.60
2018-10-17T09:50:59.919Z,26.13
2018-10-17T09:53:29.386Z,27.63
2018-10-17T09:55:58.642Z,27.77
2018-10-17T09:58:28.027Z,26.70
2018-10-17T10:01:03.200Z,25.53
2018-10-17T10:03:32.399Z,26.43
2018-10-17T10:06:01.739Z,25.77
2018-10-17T10:08:30.999Z,28.07
2018-10-17T10:11:00.400Z,26.53
2018-10-17T10:13:29.643Z,28.43
2018-10-17T10:15:58.937Z,27.00
2018-10-17T10:18:28.318Z,27.30
2018-10-17T10:20:57.575Z,29.30
2018-10-17T10:23:26.935Z,30.80
2018-10-17T10:25:56.216Z,26.87
2018-10-17T10:28:25.922Z,27.70
2018-10-17T10:30:55.160Z,27.57
2018-10-17T10:33:24.740Z,28.40
2018-10-17T10:35:53.971Z,29.17
2018-10-17T10:38:23.359Z,28.27
2018-10-17T10:40:52.700Z,30.27
2018-10-17T10:43:21.900Z,28.07
2018-10-17T10:45:51.220Z,25.67
2018-10-17T10:48:20.520Z,27.97
2018-10-17T10:50:49.780Z,30.13
2018-10-17T10:53:19.000Z,28.83
2018-10-17T10:55:48.464Z,26.33
2018-10-17T10:58:18.071Z,28.53
2018-10-17T11:00:47.239Z,25.97
2018-10-17T11:03:16.573Z,30.13
2018-10-17T11:05:45.974Z,28.63
2018-10-17T11:08:15.506Z,28.83
2018-10-17T11:10:44.739Z,27.17
2018-10-17T11:13:13.919Z,26.37
2018-10-17T11:15:43.220Z,28.63
2018-10-17T11:18:12.419Z,25.87
2018-10-17T11:20:41.759Z,28.33
2018-10-17T11:23:11.604Z,29.10
2018-10-17T11:25:40.900Z,26.60
2018-10-17T11:28:10.139Z,25.77
2018-10-17T11:30:39.420Z,25.57
2018-10-17T11:33:09.118Z,26.13
2018-10-17T11:35:38.527Z,24.23
2018-10-17T11:38:07.794Z,28.90
2018-10-17T11:40:37.207Z,27.37
2018-10-17T11:43:06.567Z,27.83
2018-10-17T11:45:35.906Z,27.43
2018-10-17T11:48:05.587Z,24.30
2018-10-17T11:50:35.190Z,24.83
2018-10-17T11:53:04.691Z,24.87
2018-10-17T11:55:34.047Z,23.57
2018-10-17T11:58:03.426Z,25.23
2018-10-17T12:00:32.849Z,23.57
2018-10-17T12:03:02.291Z,23.23
2018-10-17T12:05:31.891Z,25.73
2018-10-17T12:08:00.967Z,28.07
2018-10-17T12:10:30.322Z,28.07
2018-10-17T12:12:59.566Z,26.87
2018-10-17T12:15:28.846Z,23.37
2018-10-17T12:17:58.150Z,24.17
2018-10-17T12:20:27.568Z,23.00
2018-10-17T12:22:56.906Z,23.33
2018-10-17T12:25:26.266Z,23.60
2018-10-17T12:27:55.607Z,24.03
2018-10-17T12:30:24.888Z,26.07
2018-10-17T12:32:54.193Z,23.47
2018-10-17T12:35:23.522Z,24.00
2018-10-17T12:37:52.689Z,24.03
2018-10-17T12:40:22.061Z,24.07
2018-10-17T12:42:51.561Z,25.40
2018-10-17T12:45:20.935Z,22.10
2018-10-17T12:47:50.122Z,28.47
2018-10-17T12:50:19.521Z,21.93
2018-10-17T12:52:48.791Z,24.90
2018-10-17T12:55:18.205Z,24.50
2018-10-17T12:57:47.401Z,24.87
2018-10-17T13:00:16.721Z,24.10
2018-10-17T13:02:46.001Z,23.53
2018-10-17T13:05:15.432Z,22.87
2018-10-17T13:07:44.601Z,23.03
2018-10-17T13:10:14.245Z,23.97
2018-10-17T13:12:43.461Z,22.57
2018-10-17T13:15:13.882Z,21.57
2018-10-17T13:17:44.601Z,20.90
2018-10-17T13:20:14.681Z,21.43
2018-10-17T13:22:43.901Z,20.80
2018-10-17T13:25:13.209Z,19.80
2018-10-17T13:27:42.521Z,20.13
2018-10-17T13:30:11.761Z,19.27
2018-10-17T13:32:41.495Z,19.10
2018-10-17T13:35:10.782Z,18.90
2018-10-17T13:37:40.082Z,17.80
2018-10-17T13:40:09.464Z,19.03
2018-10-17T13:42:38.741Z,16.67
2018-10-17T13:45:08.081Z,19.30
2018-10-17T13:47:37.364Z,18.60
2018-10-17T13:50:06.967Z,20.10
2018-10-17T13:52:36.200Z,20.27
2018-10-17T13:55:06.011Z,19.20
2018-10-17T13:57:35.330Z,33.00
2018-10-17T14:00:05.904Z,18.33
2018-10-17T14:02:35.161Z,17.20
2018-10-17T14:05:04.901Z,18.03
2018-10-17T14:07:34.221Z,20.50
2018-10-17T14:10:04.122Z,18.47
2018-10-17T14:12:33.780Z,19.53
2018-10-17T14:15:03.057Z,17.67
2018-10-17T14:17:32.301Z,17.20
2018-10-17T14:20:01.580Z,18.53
2018-10-17T14:22:30.811Z,19.30
2018-10-17T14:25:00.032Z,17.40
2018-10-17T14:27:29.341Z,25.30
2018-10-17T14:29:58.693Z,18.50
2018-10-17T14:32:27.995Z,20.23
2018-10-17T14:34:57.135Z,18.53
2018-10-17T14:37:26.533Z,17.30
2018-10-17T14:39:56.139Z,16.90
2018-10-17T14:42:25.385Z,18.83
2018-10-17T14:44:55.035Z,17.67
2018-10-17T14:47:24.205Z,16.50
2018-10-17T14:49:53.450Z,16.03
2018-10-17T14:52:22.825Z,19.83
2018-10-17T14:54:52.150Z,16.03
2018-10-17T14:57:21.205Z,18.73
2018-10-17T14:59:50.436Z,17.33
2018-10-17T15:02:19.641Z,19.07
2018-10-17T15:04:49.003Z,16.80
2018-10-17T15:07:18.352Z,26.20
2018-10-17T15:09:47.671Z,17.13
2018-10-17T15:12:16.994Z,23.17
2018-10-17T15:14:46.103Z,17.37
2018-10-17T15:17:15.764Z,19.13
2018-10-17T15:19:51.841Z,18.87
2018-10-17T15:22:21.073Z,17.83
2018-10-17T15:24:50.415Z,22.13
2018-10-17T15:27:19.637Z,17.40
2018-10-17T15:29:48.939Z,17.37
2018-10-17T15:32:18.245Z,16.50
2018-10-17T15:34:47.785Z,24.10
2018-10-17T15:37:17.142Z,17.87
2018-10-17T15:39:46.837Z,20.43
2018-10-17T15:42:16.123Z,20.80
2018-10-17T15:44:45.233Z,18.57
2018-10-17T15:47:14.514Z,31.97
2018-10-17T15:49:44.080Z,27.10
2018-10-17T15:52:13.612Z,28.30
2018-10-17T15:54:42.825Z,22.27
2018-10-17T15:57:12.260Z,20.77
2018-10-17T15:59:42.405Z,21.33
2018-10-17T16:02:11.856Z,54.70
2018-10-17T16:04:41.100Z,24.77
2018-10-17T16:07:10.374Z,19.30
2018-10-17T16:09:39.987Z,30.97
2018-10-17T16:12:09.360Z,21.90
2018-10-17T16:14:38.554Z,26.37
2018-10-17T16:17:07.775Z,27.90
2018-10-17T16:19:37.444Z,20.60
2018-10-17T16:22:07.168Z,28.80
2018-10-17T16:24:36.666Z,64.83
2018-10-17T16:27:06.705Z,51.90
2018-10-17T16:29:36.048Z,21.93
2018-10-17T16:32:06.046Z,20.07
2018-10-17T16:34:35.756Z,20.57
2018-10-17T16:37:05.403Z,26.13
2018-10-17T16:39:34.722Z,35.53
2018-10-17T16:42:04.527Z,48.00
2018-10-17T16:44:33.966Z,23.13
2018-10-17T16:47:03.395Z,42.67
2018-10-17T16:49:32.974Z,21.20
2018-10-17T16:52:02.285Z,27.83
2018-10-17T16:54:32.003Z,28.47
2018-10-17T16:57:01.313Z,25.57
2018-10-17T16:59:30.703Z,28.77
2018-10-17T17:01:59.963Z,37.70
2018-10-17T17:04:29.454Z,34.63
2018-10-17T17:06:58.712Z,60.27
2018-10-17T17:09:28.043Z,27.23
2018-10-17T17:11:57.345Z,24.97
2018-10-17T17:14:26.810Z,23.37
2018-10-17T17:16:56.143Z,30.67
2018-10-17T17:19:25.537Z,26.73
2018-10-17T17:21:54.902Z,30.90
2018-10-17T17:24:24.546Z,40.73
2018-10-17T17:26:54.005Z,25.53
2018-10-17T17:29:23.302Z,33.57
2018-10-17T17:31:52.662Z,34.03
2018-10-17T17:34:22.023Z,26.97
2018-10-17T17:36:51.230Z,28.47
2018-10-17T17:39:20.469Z,28.30
2018-10-17T17:41:49.771Z,29.40
2018-10-17T17:44:19.067Z,26.40
2018-10-17T17:46:48.631Z,42.13
2018-10-17T17:49:17.890Z,31.53
2018-10-17T17:51:47.149Z,35.80
2018-10-17T17:54:16.472Z,29.40
2018-10-17T17:56:45.770Z,37.23
2018-10-17T17:59:15.089Z,84.63
2018-10-17T18:01:44.310Z,101.27
2018-10-17T18:04:13.716Z,28.70
2018-10-17T18:06:43.161Z,31.90
2018-10-17T18:09:13.154Z,40.00
2018-10-17T18:11:42.434Z,28.47
2018-10-17T18:14:11.718Z,33.03
2018-10-17T18:16:41.317Z,41.10
2018-10-17T18:19:10.617Z,52.27
2018-10-17T18:21:39.823Z,37.10
2018-10-17T18:24:09.177Z,49.63
2018-10-17T18:26:38.797Z,49.97
2018-10-17T18:29:08.180Z,43.90
2018-10-17T18:31:37.397Z,45.67
2018-10-17T18:34:06.782Z,39.77
2018-10-17T18:36:36.002Z,35.53
2018-10-17T18:39:07.136Z,33.73
2018-10-17T18:41:36.477Z,35.83
2018-10-17T18:44:05.873Z,38.67
2018-10-17T18:46:35.098Z,34.10
2018-10-17T18:49:04.441Z,38.00
2018-10-17T18:51:33.739Z,35.87
2018-10-17T18:54:03.057Z,34.27
2018-10-17T18:56:32.317Z,34.07
2018-10-17T18:59:01.799Z,64.80
2018-10-17T19:01:31.185Z,40.80
2018-10-17T19:04:00.437Z,30.77
2018-10-17T19:06:29.657Z,32.03
2018-10-17T19:08:58.956Z,37.47
2018-10-17T19:11:31.097Z,33.53
2018-10-17T19:14:00.500Z,37.33
2018-10-17T19:16:29.738Z,31.30
2018-10-17T19:18:58.980Z,35.27
2018-10-17T19:21:28.237Z,34.03
2018-10-17T19:23:57.557Z,44.67
2018-10-17T19:26:26.816Z,35.03
2018-10-17T19:28:56.076Z,33.60
2018-10-17T19:31:25.337Z,36.33
2018-10-17T19:33:54.657Z,45.83
2018-10-17T19:36:24.357Z,40.07
2018-10-17T19:38:53.550Z,40.10
2018-10-17T19:41:22.897Z,39.03
2018-10-17T19:43:52.536Z,48.70
2018-10-17T19:46:21.737Z,46.20
2018-10-17T19:48:51.117Z,48.07
2018-10-17T19:51:20.383Z,42.27
2018-10-17T19:53:49.596Z,40.97
2018-10-17T19:56:18.941Z,39.80
2018-10-17T19:58:48.198Z,35.43
2018-10-17T20:01:17.413Z,41.90
2018-10-17T20:03:46.679Z,40.03
2018-10-17T20:06:16.087Z,41.90
2018-10-17T20:08:45.344Z,39.50
2018-10-17T20:11:15.084Z,43.77
2018-10-17T20:13:44.315Z,42.33
2018-10-17T20:16:14.524Z,41.27
2018-10-17T20:18:43.877Z,37.90
2018-10-17T20:21:13.270Z,36.27
2018-10-17T20:23:42.584Z,38.87
2018-10-17T20:26:12.505Z,37.17
2018-10-17T20:28:41.864Z,41.33
2018-10-17T20:31:11.304Z,39.50
2018-10-17T20:33:40.645Z,40.67
2018-10-17T20:36:10.064Z,48.37
2018-10-17T20:38:39.507Z,38.80
2018-10-17T20:41:08.905Z,34.67
2018-10-17T20:43:38.432Z,36.67
2018-10-17T20:46:07.775Z,35.43
2018-10-17T20:48:37.025Z,43.93
2018-10-17T20:51:06.357Z,38.67
2018-10-17T20:53:35.476Z,41.67
2018-10-17T20:56:04.937Z,37.87
2018-10-17T20:58:34.406Z,38.30
2018-10-17T21:01:03.876Z,42.27
2018-10-17T21:03:33.260Z,42.07
2018-10-17T21:06:02.516Z,49.73
2018-10-17T21:08:31.817Z,50.63
2018-10-17T21:11:01.064Z,53.83
2018-10-17T21:13:30.776Z,58.23
2018-10-17T21:15:59.986Z,60.53
2018-10-17T21:18:29.332Z,60.07
2018-10-17T21:20:58.797Z,56.43
2018-10-17T21:23:27.997Z,42.13
2018-10-17T21:25:57.304Z,36.87
2018-10-17T21:28:26.936Z,39.97
2018-10-17T21:30:56.377Z,42.03
2018-10-17T21:33:25.778Z,46.93
2018-10-17T21:35:55.113Z,46.23
2018-10-17T21:38:24.457Z,52.03
2018-10-17T21:40:53.681Z,48.90
2018-10-17T21:43:23.219Z,46.27
2018-10-17T21:45:52.477Z,50.40
2018-10-17T21:48:21.898Z,55.30
2018-10-17T21:50:51.198Z,53.83
2018-10-17T21:53:20.480Z,55.93
2018-10-17T21:55:49.701Z,58.37
2018-10-17T21:58:18.937Z,49.70
2018-10-17T22:00:48.358Z,53.47
2018-10-17T22:03:17.658Z,55.27
2018-10-17T22:05:46.878Z,54.87
2018-10-17T22:08:16.293Z,55.50
2018-10-17T22:10:45.448Z,55.70
2018-10-17T22:13:14.717Z,52.77
2018-10-17T22:15:43.937Z,52.80
2018-10-17T22:18:13.198Z,53.43
2018-10-17T22:20:42.438Z,58.13
2018-10-17T22:23:11.757Z,55.93
2018-10-17T22:25:41.074Z,56.70
2018-10-17T22:28:10.478Z,52.90
2018-10-17T22:30:39.797Z,55.67
2018-10-17T22:33:09.098Z,52.33
2018-10-17T22:35:38.264Z,52.03
2018-10-17T22:38:07.649Z,53.30
2018-10-17T22:40:37.245Z,55.63
2018-10-17T22:43:07.717Z,51.07
2018-10-17T22:45:36.997Z,47.27
2018-10-17T22:48:06.337Z,50.93
2018-10-17T22:50:35.608Z,50.93
2018-10-17T22:53:05.377Z,48.97
2018-10-17T22:55:34.617Z,48.60
2018-10-17T22:58:04.042Z,52.30
2018-10-17T23:00:33.357Z,47.03
2018-10-17T23:03:02.689Z,52.57
2018-10-17T23:05:32.064Z,51.93
2018-10-17T23:08:01.920Z,50.13
2018-10-17T23:10:31.078Z,51.37
2018-10-17T23:13:00.828Z,47.43
2018-10-17T23:15:30.019Z,51.00
2018-10-17T23:17:59.279Z,47.87
2018-10-17T23:20:28.458Z,44.53
2018-10-17T23:22:57.698Z,47.60
2018-10-17T23:25:26.958Z,47.37
2018-10-17T23:27:56.259Z,47.17
2018-10-17T23:30:25.498Z,48.03
2018-10-17T23:32:54.758Z,50.50
2018-10-17T23:35:24.038Z,53.50
2018-10-17T23:37:53.341Z,56.40
2018-10-17T23:40:22.618Z,57.07
2018-10-17T23:42:52.381Z,61.83
2018-10-17T23:45:21.638Z,54.90
2018-10-17T23:47:50.958Z,57.37
2018-10-17T23:50:20.521Z,57.67
2018-10-17T23:52:49.718Z,55.47
2018-10-17T23:55:18.982Z,56.13
2018-10-17T23:57:48.618Z,52.90
